createdAt,value
2018-12-02T00:04:56.879Z,100153.45
2018-12-02T00:10:07.992Z,100142.54
2018-12-02T00:15:27.949Z,100140.89
2018-12-02T00:20:44.818Z,100126.61
2018-12-02T00:26:04.256Z,100119.88
2018-12-02T00:31:20.955Z,100121.03
2018-12-02T00:36:35.607Z,100117.95
2018-12-02T00:41:54.273Z,100095.02
2018-12-02T00:47:05.424Z,100107.36
2018-12-02T00:52:23.196Z,100065.56
2018-12-02T00:57:36.414Z,100069.86
2018-12-02T01:02:52.293Z,100063.00
2018-12-02T01:08:15.510Z,100057.34
2018-12-02T01:13:34.447Z,100048.88
2018-12-02T01:18:54.030Z,100043.06
2018-12-02T01:24:18.949Z,100034.08
2018-12-02T01:29:41.060Z,100029.28
2018-12-02T01:35:02.113Z,100030.31
2018-12-02T01:40:16.295Z,100009.59
2018-12-02T01:45:33.614Z,100005.33
2018-12-02T01:56:08.143Z,100003.09
2018-12-02T02:01:23.080Z,99990.66
2018-12-02T02:06:36.554Z,99979.92
2018-12-02T02:11:54.680Z,99981.16
2018-12-02T02:17:07.971Z,99961.53
2018-12-02T02:22:27.999Z,99939.52
2018-12-02T02:27:44.711Z,99940.52
2018-12-02T02:33:01.161Z,99943.74
2018-12-02T02:38:18.445Z,99934.48
2018-12-02T02:43:35.447Z,99931.78
2018-12-02T02:59:15.032Z,99925.19
2018-12-02T03:04:29.743Z,99903.53
2018-12-02T03:09:49.994Z,99910.22
2018-12-02T03:15:06.101Z,99907.13
2018-12-02T03:20:28.437Z,99912.96
2018-12-02T03:25:47.551Z,99909.91
2018-12-02T03:36:20.618Z,99886.67
2018-12-02T03:41:35.832Z,99882.41
2018-12-02T03:57:20.638Z,99854.73
2018-12-02T04:02:41.051Z,99848.23
2018-12-02T04:07:59.049Z,99840.93
2018-12-02T04:13:17.168Z,99831.34
2018-12-02T04:18:39.340Z,99821.41
2018-12-02T04:24:01.493Z,99803.29
2018-12-02T04:29:17.593Z,99800.83
2018-12-02T04:45:03.235Z,99784.30
2018-12-02T04:50:30.279Z,99781.98
2018-12-02T04:55:45.583Z,99774.38
2018-12-02T05:01:01.970Z,99763.83
2018-12-02T05:16:51.537Z,99749.50
2018-12-02T05:22:03.727Z,99717.38
2018-12-02T05:27:21.567Z,99714.31
2018-12-02T05:32:46.012Z,99704.42
2018-12-02T05:38:03.665Z,99704.56
2018-12-02T05:48:40.102Z,99691.91
2018-12-02T05:53:53.055Z,99688.08
2018-12-02T05:59:09.582Z,99677.53
2018-12-02T06:14:53.073Z,99665.30
2018-12-02T06:20:14.523Z,99657.79
2018-12-02T06:25:36.723Z,99653.66
2018-12-02T06:30:57.401Z,99641.59
2018-12-02T06:41:30.559Z,99647.79
2018-12-02T06:46:50.867Z,99642.34
2018-12-02T06:52:05.601Z,99637.92
2018-12-02T07:02:43.192Z,99629.22
2018-12-02T07:08:02.543Z,99629.22
2018-12-02T07:13:21.955Z,99642.68
2018-12-02T07:18:35.025Z,99644.48
2018-12-02T07:23:57.036Z,99636.08
2018-12-02T07:29:14.979Z,99641.25
2018-12-02T07:34:28.447Z,99621.98
2018-12-02T07:39:48.070Z,99620.32
2018-12-02T07:45:02.431Z,99608.38
2018-12-02T07:50:18.146Z,99610.98
2018-12-02T07:55:31.340Z,99615.17
2018-12-02T08:00:43.224Z,99611.59
2018-12-02T08:05:57.768Z,99610.98
2018-12-02T08:11:10.174Z,99621.75
2018-12-02T08:16:23.369Z,99594.74
2018-12-02T08:21:41.275Z,99600.19
2018-12-02T08:27:00.466Z,99602.41
2018-12-02T08:32:11.919Z,99599.17
2018-12-02T08:37:22.255Z,99614.91
2018-12-02T08:42:36.150Z,99609.10
2018-12-02T08:47:46.741Z,99614.44
2018-12-02T08:53:01.939Z,99620.63
2018-12-02T08:58:15.325Z,99621.73
2018-12-02T09:03:25.299Z,99611.36
2018-12-02T09:08:34.562Z,99614.48
2018-12-02T09:13:40.514Z,99627.68
2018-12-02T09:18:58.389Z,99626.72
2018-12-02T09:24:08.180Z,99617.20
2018-12-02T09:29:16.381Z,99625.34
2018-12-02T09:34:32.737Z,99627.03
2018-12-02T09:39:52.721Z,99622.07
2018-12-02T09:45:08.076Z,99632.38
2018-12-02T09:50:20.080Z,99625.06
2018-12-02T09:55:26.917Z,99638.33
2018-12-02T10:00:35.939Z,99641.14
2018-12-02T10:05:42.750Z,99628.80
2018-12-02T10:10:51.932Z,99642.09
2018-12-02T10:16:05.265Z,99637.77
2018-12-02T10:21:10.857Z,99631.34
2018-12-02T10:26:19.427Z,99632.85
2018-12-02T10:31:21.445Z,99627.46
2018-12-02T10:36:25.046Z,99621.06
2018-12-02T10:41:28.548Z,99611.28
2018-12-02T10:46:31.229Z,99598.54
2018-12-02T10:51:33.891Z,99608.97
2018-12-02T10:56:36.142Z,99604.16
2018-12-02T11:01:38.939Z,99603.92
2018-12-02T11:06:39.755Z,99600.34
2018-12-02T11:11:40.188Z,99608.88
2018-12-02T11:16:41.298Z,99610.62
2018-12-02T11:21:40.324Z,99597.08
2018-12-02T11:26:41.724Z,99602.50
2018-12-02T11:31:39.469Z,99610.80
2018-12-02T11:36:37.412Z,99613.40
2018-12-02T11:41:39.022Z,99612.50
2018-12-02T11:46:37.476Z,99612.72
2018-12-02T11:51:35.283Z,99623.25
2018-12-02T11:56:33.818Z,99620.44
2018-12-02T12:01:35.453Z,99627.59
2018-12-02T12:06:35.879Z,99641.19
2018-12-02T12:11:32.436Z,99647.36
2018-12-02T12:16:31.629Z,99648.07
2018-12-02T12:21:30.008Z,99643.96
2018-12-02T12:26:28.291Z,99656.77
2018-12-02T12:31:27.218Z,99656.79
2018-12-02T12:36:22.850Z,99659.52
2018-12-02T12:41:22.676Z,99662.17
2018-12-02T12:46:18.154Z,99671.08
2018-12-02T12:51:17.062Z,99664.30
2018-12-02T12:56:12.790Z,99666.89
2018-12-02T13:01:11.806Z,99671.58
2018-12-02T13:06:09.901Z,99669.10
2018-12-02T13:11:07.721Z,99679.45
2018-12-02T13:16:04.366Z,99677.87
2018-12-02T13:21:01.928Z,99672.49
2018-12-02T13:25:58.037Z,99674.45
2018-12-02T13:31:25.710Z,99678.96
2018-12-02T13:36:20.446Z,99687.80
2018-12-02T13:41:16.291Z,99691.22
2018-12-02T13:46:12.130Z,99693.92
2018-12-02T13:51:10.833Z,99695.27
2018-12-02T13:56:09.678Z,99707.05
2018-12-02T14:01:05.680Z,99719.52
2018-12-02T14:06:04.532Z,99725.52
2018-12-02T14:11:03.053Z,99730.12
2018-12-02T14:16:03.264Z,99727.88
2018-12-02T14:21:01.397Z,99735.84
2018-12-02T14:25:59.555Z,99735.74
2018-12-02T14:30:58.298Z,99739.48
2018-12-02T14:35:57.183Z,99750.97
2018-12-02T14:41:06.516Z,99751.69
2018-12-02T14:46:03.350Z,99763.09
2018-12-02T14:51:02.033Z,99761.92
2018-12-02T14:56:02.122Z,99767.09
2018-12-02T15:01:06.043Z,99772.05
2018-12-02T15:06:03.222Z,99771.16
2018-12-02T15:11:04.104Z,99768.00
2018-12-02T15:16:03.289Z,99770.20
2018-12-02T15:21:04.362Z,99778.02
2018-12-02T15:26:05.130Z,99779.77
2018-12-02T15:31:04.204Z,99787.16
2018-12-02T15:36:05.426Z,99785.52
2018-12-02T15:41:04.557Z,99789.66
2018-12-02T15:46:02.511Z,99796.45
2018-12-02T15:51:01.919Z,99791.52
2018-12-02T15:56:02.734Z,99794.58
2018-12-02T16:01:00.364Z,99786.36
2018-12-02T16:06:05.146Z,99788.40
2018-12-02T16:11:01.740Z,99791.81
2018-12-02T16:16:03.151Z,99787.91
2018-12-02T16:21:03.826Z,99794.31
2018-12-02T16:26:04.206Z,99810.33
2018-12-02T16:31:04.926Z,99812.68
2018-12-02T16:36:03.828Z,99803.78
2018-12-02T16:41:01.662Z,99796.13
2018-12-02T16:46:02.452Z,99795.45
2018-12-02T16:51:02.743Z,99792.55
2018-12-02T16:56:04.559Z,99798.68
2018-12-02T17:01:04.013Z,99797.25
2018-12-02T17:06:04.187Z,99804.09
2018-12-02T17:11:10.593Z,99796.52
2018-12-02T17:16:07.869Z,99806.80
2018-12-02T17:21:17.514Z,99801.36
2018-12-02T17:26:14.826Z,99801.91
2018-12-02T17:31:13.019Z,99807.75
2018-12-02T17:36:11.555Z,99806.77
2018-12-02T17:41:11.022Z,99810.87
2018-12-02T17:46:09.921Z,99816.28
2018-12-02T17:51:06.312Z,99817.73
2018-12-02T17:56:07.184Z,99821.78
2018-12-02T18:01:03.127Z,99819.08
2018-12-02T18:06:02.855Z,99823.40
2018-12-02T18:11:02.511Z,99820.92
2018-12-02T18:16:01.379Z,99825.64
2018-12-02T18:21:00.594Z,99825.75
2018-12-02T18:25:57.681Z,99823.91
2018-12-02T18:30:55.451Z,99840.70
2018-12-02T18:35:54.909Z,99844.84
2018-12-02T18:40:53.068Z,99851.02
2018-12-02T18:45:52.822Z,99843.28
2018-12-02T18:50:50.915Z,99842.44
2018-12-02T18:55:51.413Z,99849.77
2018-12-02T19:00:47.383Z,99858.11
2018-12-02T19:05:47.218Z,99860.78
2018-12-02T19:10:45.313Z,99866.73
2018-12-02T19:15:43.858Z,99874.59
2018-12-02T19:20:43.325Z,99880.00
2018-12-02T19:25:41.413Z,99873.06
2018-12-02T19:30:39.855Z,99855.39
2018-12-02T19:35:39.440Z,99855.83
2018-12-02T19:40:35.652Z,99854.52
2018-12-02T19:45:33.957Z,99850.24
2018-12-02T19:50:34.885Z,99855.95
2018-12-02T19:55:34.994Z,99854.95
2018-12-02T20:00:33.998Z,99859.47
2018-12-02T20:05:32.519Z,99847.45
2018-12-02T20:10:33.975Z,99854.34
2018-12-02T20:15:34.807Z,99862.53
2018-12-02T20:20:38.531Z,99857.31
2018-12-02T20:25:38.707Z,99849.56
2018-12-02T20:30:42.871Z,99847.83
2018-12-02T20:35:50.408Z,99856.71
2018-12-02T20:40:52.413Z,99856.71
2018-12-02T20:45:52.186Z,99854.90
2018-12-02T20:50:53.133Z,99843.32
2018-12-02T20:55:56.448Z,99842.14
2018-12-02T21:00:58.907Z,99838.96
2018-12-02T21:06:01.441Z,99828.73
2018-12-02T21:11:04.300Z,99825.95
2018-12-02T21:16:10.084Z,99820.11
2018-12-02T21:21:17.414Z,99819.92
2018-12-02T21:26:17.673Z,99822.66
2018-12-02T21:31:18.683Z,99823.31
2018-12-02T21:36:21.638Z,99828.47
2018-12-02T21:41:25.493Z,99813.88
2018-12-02T21:46:26.035Z,99810.27
2018-12-02T21:51:27.051Z,99808.36
2018-12-02T21:56:28.078Z,99803.95
2018-12-02T22:01:32.218Z,99808.62
2018-12-02T22:06:34.575Z,99801.70
2018-12-02T22:11:35.442Z,99796.39
2018-12-02T22:16:36.271Z,99803.07
2018-12-02T22:21:40.200Z,99802.00
2018-12-02T22:26:46.552Z,99796.91
2018-12-02T22:31:54.903Z,99798.81
2018-12-02T22:37:02.795Z,99790.95
2018-12-02T22:42:09.921Z,99790.67
2018-12-02T22:47:18.543Z,99793.22
2018-12-02T22:52:18.588Z,99798.05
2018-12-02T22:57:19.488Z,99796.38
2018-12-02T23:02:19.364Z,99792.58
2018-12-02T23:07:19.842Z,99790.91
2018-12-02T23:12:23.953Z,99788.77
2018-12-02T23:17:24.653Z,99800.02
2018-12-02T23:22:25.139Z,99788.41
2018-12-02T23:27:32.342Z,99790.47
2018-12-02T23:32:32.051Z,99784.46
2018-12-02T23:37:32.194Z,99780.83
2018-12-02T23:42:39.009Z,99760.24
2018-12-02T23:47:38.664Z,99749.84
2018-12-02T23:52:39.328Z,99753.84
2018-12-02T23:57:39.322Z,99758.91
